Time;durP1;ratioP1;P1;durP2;ratioP2;P2;SDS_P1;SDS_P2;PMS_P1;PMS_P2;Temp;Humidity;BMP_temperature;BMP_pressure;BME280_temperature;BME280_humidity;BME280_pressure;Samples;Min_cycle;Max_cycle;Signal;HPM_P1;HPM_P2
2022/09/21 00:00:10;;;;;;;;;;;14.00;91.80;14.30;99970.00;;;;347508;28;83580;-92
2022/09/21 00:00:25;;;;;;;;;;;14.00;91.90;14.20;99976.00;;;;343015;28;90955;-92
2022/09/21 00:00:37;;;;;;;;;;;14.10;91.90;14.30;99985.00;;;;346088;28;82524;-92
2022/09/21 00:00:48;;;;;;;;;;;14.10;91.90;14.30;99975.00;;;;345770;28;90351;-92
2022/09/21 00:01:06;;;;;;;;;;;14.00;91.90;14.30;99989.00;;;;343409;28;82496;-92
2022/09/21 00:01:22;;;;;;;;;;;14.00;91.80;14.30;99985.00;;;;345448;28;91682;-92
2022/09/21 00:01:34;;;;;;;;;;;14.10;91.80;14.40;99986.00;;;;348754;27;82517;-92
2022/09/21 00:01:46;;;;;;;;;;;14.00;91.80;14.30;99986.00;;;;344342;28;92557;-92
2022/09/21 00:01:58;;;;;;;;;;;14.00;91.80;14.40;99982.00;;;;344915;28;83343;-92
2022/09/21 00:02:11;;;;;;;;;;;14.00;92.10;14.30;99971.00;;;;342914;28;91676;-93
2022/09/21 00:02:23;;;;;;;;;;;14.00;91.80;14.20;99982.00;;;;342143;28;82517;-92
2022/09/21 00:02:34;;;;;;;;;;;14.00;91.80;14.20;99979.00;;;;347014;28;90336;-92
2022/09/21 00:02:46;;;;;;;;;;;14.00;91.80;14.30;99986.00;;;;344803;28;83392;-92
2022/09/21 00:02:58;;;;;;;;;;;14.00;91.90;14.30;99983.00;;;;344317;28;90962;-92
2022/09/21 00:03:10;;;;;;;;;;;14.00;91.90;14.30;99984.00;;;;346154;28;82495;-92
2022/09/21 00:03:21;;;;;;;;;;;14.00;91.80;14.20;99982.00;;;;340179;28;91868;-93
2022/09/21 00:03:34;;;;;;;;;;;14.00;91.80;14.20;99986.00;;;;344614;28;82619;-90
2022/09/21 00:03:46;;;;;;;;;;;14.00;91.90;14.20;99980.00;;;;345705;28;89799;-92
2022/09/21 00:03:59;;;;;;;;;;;14.00;91.90;14.20;99992.00;;;;346174;28;83324;-93
2022/09/21 00:04:11;;;;;;;;;;;14.00;91.80;14.30;99986.00;;;;345668;28;91457;-93
2022/09/21 00:04:23;;;;;;;;;;;14.00;91.80;14.20;99977.00;;;;343276;28;83521;-92
2022/09/21 00:04:34;;;;;;;;;;;14.00;91.90;14.20;99984.00;;;;345739;28;91004;-92
2022/09/21 00:04:46;;;;;;;;;;;14.00;91.90;14.20;99986.00;;;;347509;28;82532;-92
2022/09/21 00:04:58;;;;;;;;;;;14.00;92.00;14.20;99977.00;;;;345653;28;91500;-92
2022/09/21 00:05:10;;;;;;;;;;;14.00;92.00;14.20;99986.00;;;;344712;28;83478;-92
2022/09/21 00:05:22;;;;;;;;;;;14.00;92.00;14.30;99990.00;;;;346795;28;91430;-92
2022/09/21 00:05:34;;;;;;;;;;;14.00;92.00;14.20;99977.00;;;;346042;28;82625;-92
2022/09/21 00:05:45;;;;;;;;;;;14.00;91.90;14.20;99986.00;;;;342848;28;91531;-91
2022/09/21 00:06:04;;;;;;;;;;;14.00;92.00;14.20;99986.00;;;;346014;28;83436;-92
2022/09/21 00:06:17;;;;;;;;;;;13.90;92.00;14.20;99980.00;;;;344421;28;90374;-93
2022/09/21 00:06:31;;;;;;;;;;;13.90;92.00;14.10;99982.00;;;;344847;28;83450;-93
2022/09/21 00:06:43;;;;;;;;;;;13.90;92.00;14.10;99983.00;;;;348502;27;90527;-92
2022/09/21 00:06:54;;;;;;;;;;;14.00;92.10;14.10;99972.00;;;;346013;28;83620;-92
2022/09/21 00:07:06;;;;;;;;;;;13.90;92.10;14.20;99978.00;;;;342912;28;89248;-92
2022/09/21 00:07:18;;;;;;;;;;;13.90;92.10;14.20;99979.00;;;;344724;28;83723;-92
2022/09/21 00:07:29;;;;;;;;;;;14.00;92.20;14.20;99985.00;;;;345539;28;93103;-92
2022/09/21 00:07:42;;;;;;;;;;;13.90;92.10;14.20;99980.00;;;;346065;28;83620;-92
2022/09/21 00:07:54;;;;;;;;;;;13.90;92.00;14.20;99987.00;;;;347153;28;91734;-92
2022/09/21 00:08:06;;;;;;;;;;;13.90;92.10;14.20;99976.00;;;;346148;28;83349;-93
2022/09/21 00:08:18;;;;;;;;;;;13.90;92.00;14.10;99983.00;;;;344310;28;91436;-92
2022/09/21 00:08:30;;;;;;;;;;;13.90;92.10;14.10;99980.00;;;;344793;28;83343;-92
2022/09/21 00:08:42;;;;;;;;;;;14.00;92.10;14.20;99984.00;;;;347043;28;90864;-92
2022/09/21 00:08:54;;;;;;;;;;;13.90;92.10;14.20;99987.00;;;;348767;27;82539;-92
2022/09/21 00:09:07;;;;;;;;;;;13.90;92.10;14.20;99983.00;;;;344214;28;91630;-91
2022/09/21 00:09:18;;;;;;;;;;;13.90;92.10;14.20;99981.00;;;;346189;28;82319;-92
2022/09/21 00:09:30;;;;;;;;;;;13.90;92.00;14.20;99975.00;;;;342989;28;88564;-92
2022/09/21 00:09:42;;;;;;;;;;;13.90;92.10;14.20;99979.00;;;;344697;28;82560;-91
2022/09/21 00:09:53;;;;;;;;;;;13.90;92.10;14.20;99975.00;;;;345659;28;90443;-91
2022/09/21 00:10:06;;;;;;;;;;;13.90;92.10;14.20;99980.00;;;;346171;28;82519;-92
2022/09/21 00:10:19;;;;;;;;;;;13.90;92.10;14.20;99971.00;;;;344217;28;91681;-92
2022/09/21 00:10:30;;;;;;;;;;;13.90;92.10;14.30;99976.00;;;;344813;28;83328;-92
2022/09/21 00:10:47;;;;;;;;;;;13.90;92.10;14.10;99984.00;;;;347124;28;91020;-92
2022/09/21 00:11:00;;;;;;;;;;;13.90;92.10;14.10;99979.00;;;;344679;28;83394;-92
2022/09/21 00:11:19;;;;;;;;;;;13.90;92.10;14.20;99975.00;;;;344322;28;91842;-92
2022/09/21 00:11:31;;;;;;;;;;;13.90;92.10;14.10;99977.00;;;;346109;28;82469;-92
2022/09/21 00:11:43;;;;;;;;;;;13.90;92.10;14.10;99973.00;;;;341472;28;91457;-92
2022/09/21 00:11:55;;;;;;;;;;;13.90;92.10;14.10;99974.00;;;;346090;28;83384;-92
2022/09/21 00:12:09;;;;;;;;;;;13.90;92.10;14.20;99972.00;;;;345469;28;91652;-92
2022/09/21 00:12:21;;;;;;;;;;;13.90;92.10;14.20;99980.00;;;;343438;28;83349;-92
2022/09/21 00:12:32;;;;;;;;;;;13.90;92.10;14.20;99973.00;;;;345707;28;90416;-92
2022/09/21 00:12:47;;;;;;;;;;;13.90;92.10;14.20;99985.00;;;;346157;28;83335;-92
2022/09/21 00:12:59;;;;;;;;;;;13.90;92.10;14.20;99973.00;;;;345605;28;90189;-93
2022/09/21 00:13:10;;;;;;;;;;;13.90;92.20;14.20;99981.00;;;;346161;28;82489;-92
2022/09/21 00:13:23;;;;;;;;;;;13.90;92.40;14.20;99978.00;;;;341419;28;89805;-92
2022/09/21 00:13:36;;;;;;;;;;;13.90;92.10;14.20;99972.00;;;;343103;28;82586;-92
2022/09/21 00:13:52;;;;;;;;;;;13.90;92.20;14.10;99970.00;;;;345330;28;91904;-92
2022/09/21 00:14:06;;;;;;;;;;;13.90;92.20;14.10;99974.00;;;;346149;28;83400;-92
2022/09/21 00:14:18;;;;;;;;;;;14.00;92.20;14.10;99974.00;;;;344349;28;90825;-92
2022/09/21 00:14:30;;;;;;;;;;;13.90;92.20;14.10;99977.00;;;;344522;28;82608;-92
2022/09/21 00:14:42;;;;;;;;;;;13.90;92.20;14.20;99973.00;;;;344176;28;90126;-92
2022/09/21 00:14:55;;;;;;;;;;;13.90;92.40;14.20;99970.00;;;;345785;28;83511;-92
2022/09/21 00:15:08;;;;;;;;;;;13.90;92.20;14.20;99974.00;;;;344425;28;88621;-91
2022/09/21 00:15:20;;;;;;;;;;;13.90;92.10;14.10;99970.00;;;;344335;28;82594;-92
2022/09/21 00:15:31;;;;;;;;;;;13.90;92.10;14.10;99976.00;;;;344259;28;88371;-92
2022/09/21 00:15:43;;;;;;;;;;;13.90;92.10;14.10;99972.00;;;;344859;28;82469;-91
2022/09/21 00:15:55;;;;;;;;;;;13.90;92.10;14.00;99977.00;;;;345625;28;92302;-92
2022/09/21 00:16:07;;;;;;;;;;;13.90;92.10;14.10;99971.00;;;;344884;28;82476;-92
2022/09/21 00:16:19;;;;;;;;;;;13.90;92.10;14.10;99970.00;;;;345730;28;90044;-90
2022/09/21 00:16:31;;;;;;;;;;;13.90;92.20;14.10;99972.00;;;;344794;28;82508;-93
2022/09/21 00:16:43;;;;;;;;;;;13.90;92.20;14.10;99968.00;;;;342987;28;91354;-92
2022/09/21 00:16:55;;;;;;;;;;;13.90;92.20;14.10;99978.00;;;;347370;27;83503;-92
2022/09/21 00:17:08;;;;;;;;;;;13.90;92.20;14.10;99973.00;;;;347113;28;91866;-92
2022/09/21 00:17:20;;;;;;;;;;;13.90;92.20;14.20;99973.00;;;;346092;28;83459;-92
2022/09/21 00:17:32;;;;;;;;;;;13.90;92.20;14.20;99969.00;;;;345600;28;91382;-91
2022/09/21 00:17:44;;;;;;;;;;;13.90;92.30;14.10;99972.00;;;;342038;28;83397;-92
2022/09/21 00:17:56;;;;;;;;;;;13.90;92.40;14.10;99976.00;;;;345627;28;91640;-91
2022/09/21 00:18:08;;;;;;;;;;;13.90;92.30;14.10;99968.00;;;;346094;28;83455;-92
2022/09/21 00:18:21;;;;;;;;;;;13.90;92.30;14.00;99972.00;;;;345685;28;90176;-92
2022/09/21 00:18:34;;;;;;;;;;;13.90;92.20;14.10;99966.00;;;;344817;28;82454;-92
2022/09/21 00:18:46;;;;;;;;;;;13.90;92.20;14.10;99970.00;;;;345688;28;90755;-92
2022/09/21 00:18:59;;;;;;;;;;;13.90;92.20;14.20;99977.00;;;;347515;28;83402;-91
2022/09/21 00:19:10;;;;;;;;;;;13.90;92.20;14.20;99973.00;;;;347136;28;91306;-93
2022/09/21 00:19:22;;;;;;;;;;;13.90;92.20;14.10;99969.00;;;;344825;28;82673;-92
2022/09/21 00:19:34;;;;;;;;;;;13.90;92.30;14.10;99977.00;;;;344284;28;91209;-92
2022/09/21 00:19:46;;;;;;;;;;;13.90;92.30;14.20;99970.00;;;;347571;28;82518;-92
2022/09/21 00:20:00;;;;;;;;;;;13.90;92.30;14.10;99968.00;;;;344354;28;92488;-92
2022/09/21 00:20:11;;;;;;;;;;;13.90;92.30;14.20;99968.00;;;;343369;28;83489;-92
2022/09/21 00:20:23;;;;;;;;;;;13.90;92.20;14.10;99973.00;;;;347062;28;90427;-92
2022/09/21 00:20:35;;;;;;;;;;;13.90;92.30;14.20;99980.00;;;;344776;28;82453;-92
2022/09/21 00:20:47;;;;;;;;;;;13.90;92.30;14.10;99964.00;;;;342984;28;91561;-92
2022/09/21 00:20:58;;;;;;;;;;;13.90;92.30;14.10;99976.00;;;;344696;28;83519;-92
2022/09/21 00:21:12;;;;;;;;;;;13.90;92.30;14.10;99976.00;;;;344305;28;91666;-92
2022/09/21 00:21:24;;;;;;;;;;;13.90;92.30;14.10;99976.00;;;;344637;28;82543;-92
2022/09/21 00:21:37;;;;;;;;;;;13.80;92.30;14.20;99977.00;;;;345630;28;91431;-92
2022/09/21 00:21:52;;;;;;;;;;;13.80;92.30;14.20;99987.00;;;;343378;28;82502;-92
2022/09/21 00:22:04;;;;;;;;;;;13.90;92.30;14.20;99969.00;;;;345535;28;92236;-92
2022/09/21 00:22:16;;;;;;;;;;;13.90;92.30;14.10;99969.00;;;;346014;28;83494;-92
2022/09/21 00:22:28;;;;;;;;;;;13.90;92.30;14.10;99968.00;;;;344448;28;90411;-91
2022/09/21 00:22:40;;;;;;;;;;;13.90;92.30;14.10;99976.00;;;;346062;28;83368;-92
2022/09/21 00:22:52;;;;;;;;;;;13.90;92.30;14.10;99978.00;;;;344222;28;90371;-91
2022/09/21 00:23:04;;;;;;;;;;;13.90;92.40;14.20;99978.00;;;;344784;28;83385;-91
2022/09/21 00:23:16;;;;;;;;;;;13.90;92.40;14.20;99975.00;;;;344380;28;90595;-92
2022/09/21 00:23:28;;;;;;;;;;;13.80;92.30;14.20;99974.00;;;;344682;28;83427;-92
2022/09/21 00:23:40;;;;;;;;;;;13.80;92.30;14.10;99972.00;;;;344179;28;92043;-91
2022/09/21 00:23:53;;;;;;;;;;;13.80;92.30;14.10;99968.00;;;;343414;28;82559;-92
2022/09/21 00:24:05;;;;;;;;;;;13.80;92.40;14.00;99977.00;;;;344031;28;91101;-93
2022/09/21 00:24:17;;;;;;;;;;;13.80;92.30;14.10;99981.00;;;;347438;28;82572;-92
2022/09/21 00:24:29;;;;;;;;;;;13.80;92.40;14.10;99989.00;;;;345549;28;91371;-92
2022/09/21 00:24:40;;;;;;;;;;;13.80;92.30;14.10;99972.00;;;;343333;28;82591;-92
2022/09/21 00:24:52;;;;;;;;;;;13.80;92.30;14.10;99972.00;;;;342845;28;90309;-92
2022/09/21 00:25:04;;;;;;;;;;;13.80;92.40;14.10;99977.00;;;;347421;28;83445;-92
2022/09/21 00:25:17;;;;;;;;;;;13.80;92.50;14.10;99970.00;;;;344300;28;91404;-92
2022/09/21 00:25:28;;;;;;;;;;;13.80;92.40;14.10;99973.00;;;;344644;28;82574;-92
2022/09/21 00:25:40;;;;;;;;;;;13.80;92.40;14.10;99978.00;;;;344347;28;91296;-92
2022/09/21 00:25:52;;;;;;;;;;;13.80;92.40;14.10;99981.00;;;;344772;28;83393;-92
2022/09/21 00:26:11;;;;;;;;;;;13.80;92.40;14.00;99986.00;;;;342944;28;92241;-92
2022/09/21 00:26:24;;;;;;;;;;;13.80;92.30;14.10;99982.00;;;;348844;27;82539;-92
2022/09/21 00:26:36;;;;;;;;;;;13.80;92.30;14.10;99979.00;;;;347087;28;90456;-92
2022/09/21 00:26:48;;;;;;;;;;;13.80;92.40;14.10;99974.00;;;;344622;28;82499;-92
2022/09/21 00:26:59;;;;;;;;;;;13.80;92.40;14.10;99981.00;;;;349897;27;89023;-92
2022/09/21 00:27:11;;;;;;;;;;;13.80;92.40;14.10;99982.00;;;;347479;28;82580;-92
2022/09/21 00:27:28;;;;;;;;;;;13.80;92.30;14.20;99977.00;;;;345635;28;91353;-92
2022/09/21 00:27:40;;;;;;;;;;;13.80;92.40;14.10;99980.00;;;;345967;28;82490;-92
2022/09/21 00:27:53;;;;;;;;;;;13.80;92.40;14.10;99978.00;;;;344314;28;91245;-92
2022/09/21 00:28:04;;;;;;;;;;;13.80;92.30;14.20;99975.00;;;;344763;28;82563;-92
2022/09/21 00:28:16;;;;;;;;;;;13.80;92.30;14.20;99979.00;;;;342829;28;92286;-92
2022/09/21 00:28:28;;;;;;;;;;;13.80;92.40;14.20;99986.00;;;;344806;28;82593;-92
2022/09/21 00:28:40;;;;;;;;;;;13.80;92.40;14.10;99984.00;;;;344271;28;91267;-92
2022/09/21 00:28:53;;;;;;;;;;;13.80;92.40;14.10;99988.00;;;;343342;28;83403;-92
2022/09/21 00:29:05;;;;;;;;;;;13.80;92.40;14.20;99986.00;;;;344287;28;91354;-92
2022/09/21 00:29:17;;;;;;;;;;;13.80;92.40;14.10;99979.00;;;;347446;28;83369;-92
2022/09/21 00:29:29;;;;;;;;;;;13.80;92.40;14.10;99984.00;;;;344241;28;91841;-92
2022/09/21 00:29:40;;;;;;;;;;;13.90;92.40;14.10;99974.00;;;;348861;27;83498;-92
2022/09/21 00:29:53;;;;;;;;;;;13.80;92.40;14.10;99977.00;;;;341575;28;91459;-92
2022/09/21 00:30:05;;;;;;;;;;;13.80;92.40;14.10;99973.00;;;;343405;28;83504;-93
2022/09/21 00:30:17;;;;;;;;;;;13.80;92.40;14.10;99982.00;;;;344026;28;92738;-92
2022/09/21 00:30:29;;;;;;;;;;;13.80;92.40;14.10;99976.00;;;;344684;28;83285;-92
2022/09/21 00:30:41;;;;;;;;;;;13.80;92.40;14.10;99983.00;;;;344328;28;90741;-93
2022/09/21 00:30:52;;;;;;;;;;;13.80;92.40;14.10;99984.00;;;;346086;28;83466;-92
2022/09/21 00:31:05;;;;;;;;;;;13.80;92.40;14.10;99984.00;;;;341543;28;91406;-92
2022/09/21 00:31:17;;;;;;;;;;;13.80;92.40;14.10;99980.00;;;;346066;28;83485;-92
2022/09/21 00:31:30;;;;;;;;;;;13.80;92.40;14.10;99984.00;;;;345573;28;90443;-92
2022/09/21 00:31:41;;;;;;;;;;;13.80;92.40;14.10;99973.00;;;;347488;28;83353;-92
2022/09/21 00:31:53;;;;;;;;;;;13.80;92.40;14.10;99983.00;;;;345597;28;90448;-92
2022/09/21 00:32:05;;;;;;;;;;;13.80;92.40;14.00;99990.00;;;;343363;28;83440;-93
2022/09/21 00:32:19;;;;;;;;;;;13.80;92.40;14.10;99995.00;;;;345703;28;91350;-92
2022/09/21 00:32:30;;;;;;;;;;;13.80;92.40;14.10;99982.00;;;;345988;28;82654;-91
2022/09/21 00:32:42;;;;;;;;;;;13.80;92.40;14.10;99986.00;;;;344317;28;91458;-92
2022/09/21 00:32:54;;;;;;;;;;;13.80;92.40;14.10;99991.00;;;;347512;28;82537;-92
2022/09/21 00:33:06;;;;;;;;;;;13.80;92.50;14.10;99986.00;;;;342930;28;90385;-93
2022/09/21 00:33:17;;;;;;;;;;;13.80;92.50;14.00;99980.00;;;;344733;28;82520;-92
2022/09/21 00:33:29;;;;;;;;;;;13.80;92.60;14.10;99986.00;;;;345541;28;90922;-92
2022/09/21 00:33:42;;;;;;;;;;;13.80;92.50;14.00;99987.00;;;;347425;28;82540;-92
2022/09/21 00:33:54;;;;;;;;;;;13.80;92.50;14.00;99980.00;;;;345632;28;91109;-92
2022/09/21 00:34:06;;;;;;;;;;;13.80;92.50;14.00;99984.00;;;;344592;28;84042;-92
2022/09/21 00:34:18;;;;;;;;;;;13.80;92.50;14.00;99977.00;;;;344188;28;91335;-92
2022/09/21 00:34:31;;;;;;;;;;;13.80;92.50;14.00;99985.00;;;;347475;28;83426;-92
2022/09/21 00:34:42;;;;;;;;;;;13.80;92.40;14.10;99984.00;;;;345800;28;89997;-92
2022/09/21 00:34:55;;;;;;;;;;;13.80;92.50;14.10;99982.00;;;;344618;28;83410;-92
2022/09/21 00:35:08;;;;;;;;;;;13.80;92.50;14.10;99977.00;;;;344232;28;91656;-92
2022/09/21 00:35:20;;;;;;;;;;;13.80;92.50;14.10;99982.00;;;;346076;28;82466;-92
2022/09/21 00:35:32;;;;;;;;;;;13.80;92.60;14.10;99984.00;;;;346984;28;90388;-92
2022/09/21 00:35:45;;;;;;;;;;;13.80;92.50;14.10;99979.00;;;;344676;28;83323;-92
2022/09/21 00:36:04;;;;;;;;;;;13.80;92.60;14.10;99981.00;;;;344206;28;91681;-92
2022/09/21 00:36:16;;;;;;;;;;;13.80;92.60;14.00;99978.00;;;;345967;28;83443;-92
2022/09/21 00:36:28;;;;;;;;;;;13.80;92.60;14.00;99982.00;;;;342910;28;92750;-91
2022/09/21 00:36:40;;;;;;;;;;;13.80;92.70;14.00;99988.00;;;;347387;28;83383;-92
2022/09/21 00:36:52;;;;;;;;;;;13.80;92.70;14.00;99984.00;;;;348255;27;91290;-92
2022/09/21 00:37:03;;;;;;;;;;;13.80;92.70;14.00;99989.00;;;;343412;28;82496;-92
2022/09/21 00:37:15;;;;;;;;;;;13.80;92.60;14.00;99982.00;;;;342950;28;91411;-92
2022/09/21 00:37:27;;;;;;;;;;;13.70;92.60;13.90;99993.00;;;;346194;28;82479;-92
2022/09/21 00:37:39;;;;;;;;;;;13.70;92.60;14.00;99986.00;;;;345623;28;91369;-92
2022/09/21 00:37:51;;;;;;;;;;;13.70;92.60;14.00;99986.00;;;;343377;28;82492;-92
2022/09/21 00:38:02;;;;;;;;;;;13.70;92.70;14.00;99985.00;;;;345677;28;91192;-92
2022/09/21 00:38:14;;;;;;;;;;;13.70;92.80;13.90;99984.00;;;;346049;28;83435;-92
2022/09/21 00:38:26;;;;;;;;;;;13.70;92.80;13.90;99984.00;;;;344277;28;92889;-92
2022/09/21 00:38:37;;;;;;;;;;;13.70;92.80;14.00;99989.00;;;;347494;28;83611;-92
2022/09/21 00:38:54;;;;;;;;;;;13.70;92.70;13.90;99991.00;;;;345577;28;91758;-92
2022/09/21 00:39:06;;;;;;;;;;;13.70;92.70;13.90;99987.00;;;;344720;28;83403;-92
2022/09/21 00:39:17;;;;;;;;;;;13.70;92.70;13.90;99985.00;;;;345659;28;90105;-92
2022/09/21 00:39:29;;;;;;;;;;;13.70;92.70;13.90;99990.00;;;;344786;28;82610;-92
2022/09/21 00:39:41;;;;;;;;;;;13.70;92.60;13.90;99980.00;;;;345705;28;91315;-92
2022/09/21 00:39:53;;;;;;;;;;;13.70;92.60;13.90;99985.00;;;;344663;28;82349;-92
2022/09/21 00:40:05;;;;;;;;;;;13.70;92.70;13.90;99993.00;;;;341612;28;91276;-92
2022/09/21 00:40:17;;;;;;;;;;;13.70;92.70;14.00;99988.00;;;;346150;28;83344;-92
2022/09/21 00:40:29;;;;;;;;;;;13.70;92.80;14.00;99992.00;;;;344215;28;92239;-92
2022/09/21 00:40:41;;;;;;;;;;;13.70;92.90;13.90;99989.00;;;;345993;28;83443;-92
2022/09/21 00:40:53;;;;;;;;;;;13.70;92.80;14.00;99988.00;;;;342894;28;91561;-92
2022/09/21 00:41:05;;;;;;;;;;;13.70;92.90;13.90;99993.00;;;;343421;28;83492;-92
2022/09/21 00:41:17;;;;;;;;;;;13.70;93.00;13.90;99991.00;;;;345719;28;91367;-91
2022/09/21 00:41:30;;;;;;;;;;;13.70;92.90;14.00;99994.00;;;;346115;28;83338;-92
2022/09/21 00:41:42;;;;;;;;;;;13.70;92.90;14.00;99985.00;;;;344288;28;91543;-92
2022/09/21 00:41:53;;;;;;;;;;;13.70;92.90;14.00;99988.00;;;;348804;27;83418;-92
2022/09/21 00:42:09;;;;;;;;;;;13.70;92.80;14.00;99994.00;;;;347093;28;91967;-92
2022/09/21 00:42:26;;;;;;;;;;;13.70;92.80;14.00;99993.00;;;;346082;28;82585;-91
2022/09/21 00:42:38;;;;;;;;;;;13.70;92.80;13.90;99991.00;;;;345584;28;91438;-92
2022/09/21 00:42:50;;;;;;;;;;;13.70;92.90;13.90;99991.00;;;;344762;28;83431;-92
2022/09/21 00:43:14;;;;;;;;;;;13.70;92.90;13.90;99987.00;;;;345589;28;91525;-92
2022/09/21 00:43:26;;;;;;;;;;;13.60;92.90;13.90;99986.00;;;;347379;28;83638;-92
2022/09/21 00:44:15;;;;;;;;;;;13.70;92.90;13.90;99984.00;;;;342670;28;91715;-89
2022/09/21 00:44:29;;;;;;;;;;;13.60;92.90;13.80;99991.00;;;;343418;28;82615;-92
2022/09/21 00:44:41;;;;;;;;;;;13.70;93.00;13.90;99984.00;;;;341570;28;91530;-92
2022/09/21 00:44:53;;;;;;;;;;;13.60;92.90;13.80;99983.00;;;;343320;28;83609;-92
2022/09/21 00:45:05;;;;;;;;;;;13.60;93.00;13.80;99978.00;;;;338755;28;91895;-92
2022/09/21 00:45:20;;;;;;;;;;;13.60;93.00;13.80;99981.00;;;;339260;28;83637;-92
2022/09/21 00:45:32;;;;;;;;;;;13.60;93.00;13.80;99990.00;;;;345405;28;92615;-92
2022/09/21 00:45:44;;;;;;;;;;;13.60;92.90;13.90;99984.00;;;;341961;28;83488;-92
2022/09/21 00:46:00;;;;;;;;;;;13.60;92.90;13.80;99990.00;;;;338816;28;91183;-91
2022/09/21 00:46:17;;;;;;;;;;;13.60;92.90;13.90;99978.00;;;;344623;28;82490;-92
2022/09/21 00:46:29;;;;;;;;;;;13.60;92.90;13.90;99987.00;;;;343012;28;91461;-93
2022/09/21 00:46:40;;;;;;;;;;;13.60;93.00;13.90;99986.00;;;;340679;28;83384;-92
2022/09/21 00:46:53;;;;;;;;;;;13.60;93.00;13.90;99993.00;;;;341466;28;90437;-92
2022/09/21 00:47:13;;;;;;;;;;;13.60;92.90;13.90;99991.00;;;;340627;28;83451;-93
2022/09/21 00:47:34;;;;;;;;;;;13.60;93.00;13.90;99992.00;;;;340239;28;90254;-92
2022/09/21 00:47:50;;;;;;;;;;;13.60;93.00;13.90;99993.00;;;;341935;28;83519;-92
2022/09/21 00:48:01;;;;;;;;;;;13.60;93.00;13.90;99986.00;;;;338776;28;93095;-92
2022/09/21 00:48:14;;;;;;;;;;;13.60;93.00;13.80;99982.00;;;;341824;28;83639;-92
2022/09/21 00:48:26;;;;;;;;;;;13.60;93.10;13.70;99982.00;;;;342925;28;91244;-92
2022/09/21 00:48:37;;;;;;;;;;;13.60;93.00;13.80;99981.00;;;;340601;28;83463;-92
2022/09/21 00:48:49;;;;;;;;;;;13.60;92.90;13.80;99985.00;;;;340154;28;91844;-92
2022/09/21 00:49:01;;;;;;;;;;;13.60;92.90;13.70;99978.00;;;;340594;28;82540;-92
2022/09/21 00:49:13;;;;;;;;;;;13.60;93.00;13.60;99981.00;;;;342854;28;91265;-92
2022/09/21 00:49:25;;;;;;;;;;;13.60;93.10;13.70;99980.00;;;;341929;28;83392;-92
2022/09/21 00:49:37;;;;;;;;;;;13.50;93.10;13.60;99988.00;;;;340181;28;91595;-92
2022/09/21 00:49:50;;;;;;;;;;;13.60;93.20;13.70;99981.00;;;;343346;28;83294;-92
2022/09/21 00:50:05;;;;;;;;;;;13.50;93.10;13.80;99985.00;;;;341450;28;92181;-92
2022/09/21 00:50:19;;;;;;;;;;;13.50;93.10;13.70;99983.00;;;;340477;28;83526;-92
2022/09/21 00:50:30;;;;;;;;;;;13.50;93.20;13.80;99988.00;;;;340093;28;91351;-92
2022/09/21 00:50:48;;;;;;;;;;;13.50;93.10;13.70;99976.00;;;;344630;28;82606;-92
2022/09/21 00:51:03;;;;;;;;;;;13.50;93.20;13.70;99987.00;;;;341288;28;91529;-93
2022/09/21 00:51:14;;;;;;;;;;;13.50;93.30;13.70;99981.00;;;;340559;28;83297;-92
2022/09/21 00:51:26;;;;;;;;;;;13.50;93.20;13.70;99990.00;;;;340209;28;90676;-92
2022/09/21 00:51:38;;;;;;;;;;;13.50;93.20;13.80;99975.00;;;;340257;28;86430;-92
2022/09/21 00:51:50;;;;;;;;;;;13.50;93.20;13.80;99984.00;;;;344214;28;91367;-92
2022/09/21 00:52:03;;;;;;;;;;;13.50;93.20;13.80;99986.00;;;;343321;28;82463;-92
2022/09/21 00:52:15;;;;;;;;;;;13.50;93.20;13.80;99987.00;;;;341388;28;92418;-92
2022/09/21 00:52:29;;;;;;;;;;;13.50;93.20;13.80;99980.00;;;;343391;28;82503;-92
2022/09/21 00:52:42;;;;;;;;;;;13.50;93.20;13.70;99980.00;;;;344374;28;89880;-92
2022/09/21 00:52:55;;;;;;;;;;;13.50;93.40;13.80;99981.00;;;;341872;28;82497;-91
2022/09/21 00:53:07;;;;;;;;;;;13.50;93.30;13.80;99980.00;;;;342926;28;91002;-92
2022/09/21 00:53:19;;;;;;;;;;;13.50;93.30;13.80;99980.00;;;;343349;28;82440;-92
2022/09/21 00:53:31;;;;;;;;;;;13.50;93.30;13.80;99977.00;;;;340159;28;91126;-92
2022/09/21 00:53:42;;;;;;;;;;;13.50;93.20;13.80;99978.00;;;;340588;28;82329;-92
2022/09/21 00:54:00;;;;;;;;;;;13.50;93.20;13.80;99982.00;;;;344326;28;89959;-92
2022/09/21 00:54:14;;;;;;;;;;;13.50;93.30;13.80;99988.00;;;;340513;28;83438;-92
2022/09/21 00:54:28;;;;;;;;;;;13.50;93.30;13.80;99986.00;;;;340172;28;91133;-92
2022/09/21 00:54:47;;;;;;;;;;;13.50;93.30;13.80;99980.00;;;;341981;28;82509;-92
2022/09/21 00:55:02;;;;;;;;;;;13.50;93.30;13.80;99986.00;;;;340136;28;91498;-92
2022/09/21 00:55:25;;;;;;;;;;;13.50;93.20;13.80;99981.00;;;;340305;28;82684;-92
2022/09/21 00:55:40;;;;;;;;;;;13.60;93.20;13.80;99983.00;;;;342888;28;91403;-92
2022/09/21 00:55:54;;;;;;;;;;;13.60;93.20;13.90;99986.00;;;;341852;28;83464;-92
2022/09/21 00:56:06;;;;;;;;;;;13.50;93.10;13.90;99980.00;;;;340226;28;90505;-92
2022/09/21 00:56:19;;;;;;;;;;;13.50;93.20;13.90;99981.00;;;;343274;28;83442;-92
2022/09/21 00:56:30;;;;;;;;;;;13.50;93.20;13.80;99988.00;;;;337618;28;92032;-92
2022/09/21 00:56:42;;;;;;;;;;;13.60;93.40;13.70;99981.00;;;;341934;28;83445;-91
2022/09/21 00:56:54;;;;;;;;;;;13.50;93.30;13.70;99980.00;;;;342597;28;93254;-92
2022/09/21 00:57:06;;;;;;;;;;;13.50;93.40;13.70;99985.00;;;;339303;28;82677;-92
2022/09/21 00:57:20;;;;;;;;;;;13.50;93.30;13.70;99984.00;;;;344207;28;91553;-92
2022/09/21 00:57:34;;;;;;;;;;;13.50;93.30;13.70;99976.00;;;;339308;28;83611;-92
2022/09/21 00:57:46;;;;;;;;;;;13.50;93.40;13.80;99978.00;;;;338766;28;90954;-92
2022/09/21 00:58:04;;;;;;;;;;;13.50;93.30;13.80;99983.00;;;;342008;28;83507;-92
2022/09/21 00:58:18;;;;;;;;;;;13.50;93.30;13.80;99980.00;;;;338716;28;90429;-91
2022/09/21 00:58:33;;;;;;;;;;;13.50;93.30;13.80;99985.00;;;;343307;28;82641;-92
2022/09/21 00:58:46;;;;;;;;;;;13.50;93.30;13.80;99990.00;;;;342929;28;91659;-92
2022/09/21 00:58:58;;;;;;;;;;;13.50;93.30;13.70;99978.00;;;;343254;28;82677;-91
2022/09/21 00:59:12;;;;;;;;;;;13.50;93.40;13.70;99979.00;;;;342926;28;92803;-92
2022/09/21 00:59:24;;;;;;;;;;;13.50;93.40;13.70;99972.00;;;;344629;28;83438;-92
2022/09/21 00:59:40;;;;;;;;;;;13.50;93.40;13.70;99980.00;;;;344221;28;91929;-92
2022/09/21 00:59:54;;;;;;;;;;;13.50;93.40;13.70;99984.00;;;;342014;28;83447;-92
2022/09/21 01:00:08;;;;;;;;;;;13.50;93.50;13.80;99975.00;;;;342903;28;90729;-93
2022/09/21 01:00:20;;;;;;;;;;;13.50;93.40;13.70;99976.00;;;;341944;28;83698;-92
2022/09/21 01:00:31;;;;;;;;;;;13.50;93.40;13.70;99974.00;;;;341641;28;90227;-92
2022/09/21 01:00:43;;;;;;;;;;;13.40;93.40;13.70;99981.00;;;;342016;28;82572;-92
2022/09/21 01:00:55;;;;;;;;;;;13.50;93.40;13.80;99982.00;;;;337588;28;90593;-92
2022/09/21 01:01:07;;;;;;;;;;;13.50;93.40;13.80;99978.00;;;;340943;28;82340;-93
2022/09/21 01:01:19;;;;;;;;;;;13.50;93.50;13.80;99985.00;;;;340477;28;92380;-92
2022/09/21 01:01:31;;;;;;;;;;;13.50;93.80;13.80;99977.00;;;;340818;28;82429;-92
2022/09/21 01:01:42;;;;;;;;;;;13.50;93.50;13.80;99975.00;;;;340429;28;89472;-92
2022/09/21 01:01:55;;;;;;;;;;;13.50;93.40;13.80;99976.00;;;;342429;28;83508;-91
2022/09/21 01:02:07;;;;;;;;;;;13.50;93.40;13.70;99975.00;;;;344582;28;91455;-92
2022/09/21 01:02:19;;;;;;;;;;;13.50;93.50;13.80;99974.00;;;;342391;28;82458;-91
2022/09/21 01:02:31;;;;;;;;;;;13.50;93.40;13.70;99977.00;;;;339385;28;92118;-93
2022/09/21 01:02:42;;;;;;;;;;;13.50;93.40;13.70;99979.00;;;;341305;28;83446;-92
2022/09/21 01:03:00;;;;;;;;;;;13.50;93.50;13.80;99975.00;;;;341934;28;90499;-92
2022/09/21 01:03:12;;;;;;;;;;;13.50;93.50;13.80;99984.00;;;;342473;28;82472;-91
2022/09/21 01:03:23;;;;;;;;;;;13.50;93.50;13.80;99980.00;;;;340544;28;92789;-92
2022/09/21 01:03:35;;;;;;;;;;;13.50;93.50;13.70;99989.00;;;;340293;28;82755;-90